sensor_id;sensor_type;location;lat;lon;timestamp;P1;durP1;ratioP1;P2;durP2;ratioP2
18772;SDS011;9515;50.810;4.418;2022-09-09T00:03:53;4.30;;;1.80;;
18772;SDS011;9515;50.810;4.418;2022-09-09T00:06:26;3.87;;;1.60;;
18772;SDS011;9515;50.810;4.418;2022-09-09T00:11:24;5.80;;;1.70;;
18772;SDS011;9515;50.810;4.418;2022-09-09T00:14:02;6.23;;;1.40;;
18772;SDS011;9515;50.810;4.418;2022-09-09T00:16:32;3.77;;;1.50;;
18772;SDS011;9515;50.810;4.418;2022-09-09T00:19:07;4.40;;;1.43;;
18772;SDS011;9515;50.810;4.418;2022-09-09T00:21:45;5.90;;;1.70;;
18772;SDS011;9515;50.810;4.418;2022-09-09T00:24:36;4.60;;;1.57;;
18772;SDS011;9515;50.810;4.418;2022-09-09T00:28:08;9.23;;;2.03;;
18772;SDS011;9515;50.810;4.418;2022-09-09T00:32:54;6.40;;;1.57;;
18772;SDS011;9515;50.810;4.418;2022-09-09T00:35:29;6.10;;;1.60;;
18772;SDS011;9515;50.810;4.418;2022-09-09T00:38:15;4.90;;;1.57;;
18772;SDS011;9515;50.810;4.418;2022-09-09T00:40:51;8.20;;;1.70;;
18772;SDS011;9515;50.810;4.418;2022-09-09T00:43:25;4.83;;;1.40;;
18772;SDS011;9515;50.810;4.418;2022-09-09T00:49:08;6.70;;;1.60;;
18772;SDS011;9515;50.810;4.418;2022-09-09T01:08:11;6.00;;;1.30;;
18772;SDS011;9515;50.810;4.418;2022-09-09T01:10:59;7.70;;;1.80;;
18772;SDS011;9515;50.810;4.418;2022-09-09T01:13:33;3.13;;;1.30;;
18772;SDS011;9515;50.810;4.418;2022-09-09T01:16:01;4.93;;;1.43;;
18772;SDS011;9515;50.810;4.418;2022-09-09T01:18:34;4.57;;;1.60;;
18772;SDS011;9515;50.810;4.418;2022-09-09T01:28:57;4.40;;;1.47;;
18772;SDS011;9515;50.810;4.418;2022-09-09T01:31:26;6.03;;;2.00;;
18772;SDS011;9515;50.810;4.418;2022-09-09T01:33:55;7.70;;;2.47;;
18772;SDS011;9515;50.810;4.418;2022-09-09T01:36:38;8.17;;;2.10;;
18772;SDS011;9515;50.810;4.418;2022-09-09T01:39:15;6.33;;;2.03;;
18772;SDS011;9515;50.810;4.418;2022-09-09T01:41:41;4.57;;;1.70;;
18772;SDS011;9515;50.810;4.418;2022-09-09T01:44:06;6.77;;;2.00;;
18772;SDS011;9515;50.810;4.418;2022-09-09T01:46:33;7.97;;;2.40;;
18772;SDS011;9515;50.810;4.418;2022-09-09T01:48:59;7.67;;;2.03;;
18772;SDS011;9515;50.810;4.418;2022-09-09T01:51:26;4.30;;;1.77;;
18772;SDS011;9515;50.810;4.418;2022-09-09T01:53:53;5.82;;;1.90;;
18772;SDS011;9515;50.810;4.418;2022-09-09T01:56:43;7.60;;;1.97;;
18772;SDS011;9515;50.810;4.418;2022-09-09T02:01:57;5.70;;;2.20;;
18772;SDS011;9515;50.810;4.418;2022-09-09T02:07:19;12.37;;;2.30;;
18772;SDS011;9515;50.810;4.418;2022-09-09T02:09:52;6.07;;;2.10;;
18772;SDS011;9515;50.810;4.418;2022-09-09T02:12:40;8.63;;;2.43;;
18772;SDS011;9515;50.810;4.418;2022-09-09T02:15:18;9.57;;;2.60;;
18772;SDS011;9515;50.810;4.418;2022-09-09T02:17:54;8.83;;;2.60;;
18772;SDS011;9515;50.810;4.418;2022-09-09T02:20:24;11.63;;;2.10;;
18772;SDS011;9515;50.810;4.418;2022-09-09T02:22:52;9.53;;;2.43;;
18772;SDS011;9515;50.810;4.418;2022-09-09T02:25:22;10.00;;;2.20;;
18772;SDS011;9515;50.810;4.418;2022-09-09T02:27:51;12.13;;;2.43;;
18772;SDS011;9515;50.810;4.418;2022-09-09T02:30:17;6.83;;;1.90;;
18772;SDS011;9515;50.810;4.418;2022-09-09T02:32:45;6.07;;;2.00;;
18772;SDS011;9515;50.810;4.418;2022-09-09T02:35:14;6.63;;;2.20;;
18772;SDS011;9515;50.810;4.418;2022-09-09T02:37:45;9.00;;;2.30;;
18772;SDS011;9515;50.810;4.418;2022-09-09T02:40:15;10.27;;;2.20;;
18772;SDS011;9515;50.810;4.418;2022-09-09T02:42:44;5.70;;;2.07;;
18772;SDS011;9515;50.810;4.418;2022-09-09T02:45:13;8.23;;;2.70;;
18772;SDS011;9515;50.810;4.418;2022-09-09T02:47:54;10.37;;;2.37;;
18772;SDS011;9515;50.810;4.418;2022-09-09T02:51:06;12.13;;;2.37;;
18772;SDS011;9515;50.810;4.418;2022-09-09T02:53:44;11.40;;;2.40;;
18772;SDS011;9515;50.810;4.418;2022-09-09T02:56:16;14.07;;;2.40;;
18772;SDS011;9515;50.810;4.418;2022-09-09T02:58:45;8.20;;;2.33;;
18772;SDS011;9515;50.810;4.418;2022-09-09T03:01:11;6.73;;;2.23;;
18772;SDS011;9515;50.810;4.418;2022-09-09T03:03:37;9.13;;;2.30;;
18772;SDS011;9515;50.810;4.418;2022-09-09T03:06:03;9.70;;;2.30;;
18772;SDS011;9515;50.810;4.418;2022-09-09T03:08:30;10.60;;;2.40;;
18772;SDS011;9515;50.810;4.418;2022-09-09T03:10:58;8.37;;;2.20;;
18772;SDS011;9515;50.810;4.418;2022-09-09T03:13:26;11.27;;;2.27;;
18772;SDS011;9515;50.810;4.418;2022-09-09T03:15:51;7.67;;;2.30;;
18772;SDS011;9515;50.810;4.418;2022-09-09T03:18:17;8.83;;;2.23;;
18772;SDS011;9515;50.810;4.418;2022-09-09T03:20:43;9.10;;;2.17;;
18772;SDS011;9515;50.810;4.418;2022-09-09T03:23:09;14.13;;;2.47;;
18772;SDS011;9515;50.810;4.418;2022-09-09T03:25:34;7.50;;;2.40;;
18772;SDS011;9515;50.810;4.418;2022-09-09T03:28:00;7.73;;;2.23;;
18772;SDS011;9515;50.810;4.418;2022-09-09T03:30:27;7.83;;;2.30;;
18772;SDS011;9515;50.810;4.418;2022-09-09T03:32:53;8.70;;;2.67;;
18772;SDS011;9515;50.810;4.418;2022-09-09T03:35:20;7.70;;;2.53;;
18772;SDS011;9515;50.810;4.418;2022-09-09T03:37:46;10.20;;;2.93;;
18772;SDS011;9515;50.810;4.418;2022-09-09T03:40:12;9.93;;;2.20;;
18772;SDS011;9515;50.810;4.418;2022-09-09T03:42:39;10.93;;;2.90;;
18772;SDS011;9515;50.810;4.418;2022-09-09T03:45:06;11.03;;;2.50;;
18772;SDS011;9515;50.810;4.418;2022-09-09T03:47:34;10.00;;;2.43;;
18772;SDS011;9515;50.810;4.418;2022-09-09T03:49:59;8.60;;;2.50;;
18772;SDS011;9515;50.810;4.418;2022-09-09T03:52:25;11.13;;;2.33;;
18772;SDS011;9515;50.810;4.418;2022-09-09T03:54:52;13.63;;;2.63;;
18772;SDS011;9515;50.810;4.418;2022-09-09T03:57:19;10.20;;;2.40;;
18772;SDS011;9515;50.810;4.418;2022-09-09T03:59:45;12.50;;;2.80;;
18772;SDS011;9515;50.810;4.418;2022-09-09T04:02:10;11.47;;;2.57;;
18772;SDS011;9515;50.810;4.418;2022-09-09T04:04:36;13.70;;;3.23;;
18772;SDS011;9515;50.810;4.418;2022-09-09T04:07:02;10.53;;;2.50;;
18772;SDS011;9515;50.810;4.418;2022-09-09T04:09:27;9.90;;;2.17;;
18772;SDS011;9515;50.810;4.418;2022-09-09T04:11:53;11.60;;;2.67;;
18772;SDS011;9515;50.810;4.418;2022-09-09T04:14:20;10.90;;;2.40;;
18772;SDS011;9515;50.810;4.418;2022-09-09T04:16:46;8.20;;;2.20;;
18772;SDS011;9515;50.810;4.418;2022-09-09T04:19:12;9.67;;;2.53;;
18772;SDS011;9515;50.810;4.418;2022-09-09T04:21:39;10.50;;;3.20;;
18772;SDS011;9515;50.810;4.418;2022-09-09T04:24:07;8.37;;;2.97;;
18772;SDS011;9515;50.810;4.418;2022-09-09T04:26:34;11.83;;;2.70;;
18772;SDS011;9515;50.810;4.418;2022-09-09T04:29:01;10.13;;;2.67;;
18772;SDS011;9515;50.810;4.418;2022-09-09T04:31:28;11.80;;;2.77;;
18772;SDS011;9515;50.810;4.418;2022-09-09T04:33:54;9.53;;;3.00;;
18772;SDS011;9515;50.810;4.418;2022-09-09T04:36:20;11.10;;;2.40;;
18772;SDS011;9515;50.810;4.418;2022-09-09T04:38:46;10.13;;;3.03;;
18772;SDS011;9515;50.810;4.418;2022-09-09T04:41:13;10.73;;;2.67;;
18772;SDS011;9515;50.810;4.418;2022-09-09T04:43:49;9.27;;;2.90;;
18772;SDS011;9515;50.810;4.418;2022-09-09T04:46:32;10.30;;;2.93;;
18772;SDS011;9515;50.810;4.418;2022-09-09T04:49:14;10.73;;;2.67;;
18772;SDS011;9515;50.810;4.418;2022-09-09T04:51:49;8.33;;;2.57;;
18772;SDS011;9515;50.810;4.418;2022-09-09T04:54:14;10.70;;;2.70;;
18772;SDS011;9515;50.810;4.418;2022-09-09T04:56:41;9.50;;;2.60;;
18772;SDS011;9515;50.810;4.418;2022-09-09T04:59:07;10.27;;;2.50;;
18772;SDS011;9515;50.810;4.418;2022-09-09T05:01:35;11.00;;;3.30;;
18772;SDS011;9515;50.810;4.418;2022-09-09T05:04:01;9.17;;;3.37;;
18772;SDS011;9515;50.810;4.418;2022-09-09T05:06:27;10.23;;;2.67;;
18772;SDS011;9515;50.810;4.418;2022-09-09T05:08:56;12.33;;;2.93;;
18772;SDS011;9515;50.810;4.418;2022-09-09T05:11:26;6.17;;;2.77;;
18772;SDS011;9515;50.810;4.418;2022-09-09T05:13:54;14.67;;;2.87;;
18772;SDS011;9515;50.810;4.418;2022-09-09T05:16:20;8.60;;;3.13;;
18772;SDS011;9515;50.810;4.418;2022-09-09T05:18:46;12.00;;;2.60;;
18772;SDS011;9515;50.810;4.418;2022-09-09T05:21:13;12.37;;;2.90;;
18772;SDS011;9515;50.810;4.418;2022-09-09T05:23:39;13.90;;;3.30;;
18772;SDS011;9515;50.810;4.418;2022-09-09T05:26:06;6.87;;;2.40;;
18772;SDS011;9515;50.810;4.418;2022-09-09T05:28:34;11.20;;;3.23;;
18772;SDS011;9515;50.810;4.418;2022-09-09T05:31:05;12.63;;;3.00;;
18772;SDS011;9515;50.810;4.418;2022-09-09T05:33:33;12.87;;;3.10;;
18772;SDS011;9515;50.810;4.418;2022-09-09T05:36:04;13.23;;;2.80;;
18772;SDS011;9515;50.810;4.418;2022-09-09T05:38:31;10.57;;;2.67;;
18772;SDS011;9515;50.810;4.418;2022-09-09T05:40:58;11.83;;;2.73;;
18772;SDS011;9515;50.810;4.418;2022-09-09T05:43:24;12.27;;;3.13;;
18772;SDS011;9515;50.810;4.418;2022-09-09T05:46:00;9.33;;;3.10;;
18772;SDS011;9515;50.810;4.418;2022-09-09T05:48:33;13.60;;;2.93;;
18772;SDS011;9515;50.810;4.418;2022-09-09T05:51:00;14.70;;;2.47;;
18772;SDS011;9515;50.810;4.418;2022-09-09T05:53:27;10.50;;;2.43;;
18772;SDS011;9515;50.810;4.418;2022-09-09T05:56:04;10.57;;;2.53;;
18772;SDS011;9515;50.810;4.418;2022-09-09T05:58:34;11.30;;;2.87;;
18772;SDS011;9515;50.810;4.418;2022-09-09T06:01:07;12.10;;;2.50;;
18772;SDS011;9515;50.810;4.418;2022-09-09T06:03:35;7.70;;;2.37;;
18772;SDS011;9515;50.810;4.418;2022-09-09T06:06:03;10.50;;;2.17;;
18772;SDS011;9515;50.810;4.418;2022-09-09T06:08:31;11.57;;;2.50;;
18772;SDS011;9515;50.810;4.418;2022-09-09T06:11:06;10.33;;;2.00;;
18772;SDS011;9515;50.810;4.418;2022-09-09T06:13:51;7.93;;;2.20;;
18772;SDS011;9515;50.810;4.418;2022-09-09T06:16:19;15.77;;;2.87;;
18772;SDS011;9515;50.810;4.418;2022-09-09T06:18:49;11.83;;;2.47;;
18772;SDS011;9515;50.810;4.418;2022-09-09T06:21:16;9.47;;;2.07;;
18772;SDS011;9515;50.810;4.418;2022-09-09T06:23:44;7.53;;;2.20;;
18772;SDS011;9515;50.810;4.418;2022-09-09T06:26:11;11.00;;;1.93;;
18772;SDS011;9515;50.810;4.418;2022-09-09T06:28:39;8.50;;;2.08;;
18772;SDS011;9515;50.810;4.418;2022-09-09T06:31:08;12.63;;;2.43;;
18772;SDS011;9515;50.810;4.418;2022-09-09T06:33:39;11.05;;;2.60;;
18772;SDS011;9515;50.810;4.418;2022-09-09T06:36:07;12.52;;;2.65;;
18772;SDS011;9515;50.810;4.418;2022-09-09T06:38:38;7.47;;;2.00;;
18772;SDS011;9515;50.810;4.418;2022-09-09T06:41:04;5.78;;;1.67;;
18772;SDS011;9515;50.810;4.418;2022-09-09T06:43:30;6.83;;;2.33;;
18772;SDS011;9515;50.810;4.418;2022-09-09T06:46:00;8.90;;;2.17;;
18772;SDS011;9515;50.810;4.418;2022-09-09T06:48:28;7.87;;;2.00;;
18772;SDS011;9515;50.810;4.418;2022-09-09T06:53:47;9.18;;;2.03;;
18772;SDS011;9515;50.810;4.418;2022-09-09T06:58:41;12.30;;;2.63;;
18772;SDS011;9515;50.810;4.418;2022-09-09T07:01:09;10.20;;;2.20;;
18772;SDS011;9515;50.810;4.418;2022-09-09T07:03:37;11.10;;;1.80;;
18772;SDS011;9515;50.810;4.418;2022-09-09T07:06:13;8.57;;;1.80;;
18772;SDS011;9515;50.810;4.418;2022-09-09T07:08:40;8.73;;;2.23;;
18772;SDS011;9515;50.810;4.418;2022-09-09T07:11:07;9.27;;;2.40;;
18772;SDS011;9515;50.810;4.418;2022-09-09T07:13:33;9.47;;;2.20;;
18772;SDS011;9515;50.810;4.418;2022-09-09T07:16:06;7.75;;;1.77;;
18772;SDS011;9515;50.810;4.418;2022-09-09T07:18:33;6.97;;;2.20;;
18772;SDS011;9515;50.810;4.418;2022-09-09T07:20:59;10.37;;;2.10;;
18772;SDS011;9515;50.810;4.418;2022-09-09T07:23:27;9.90;;;2.40;;
18772;SDS011;9515;50.810;4.418;2022-09-09T07:25:53;7.77;;;2.20;;
18772;SDS011;9515;50.810;4.418;2022-09-09T07:28:22;7.50;;;2.53;;
18772;SDS011;9515;50.810;4.418;2022-09-09T07:31:00;10.03;;;2.13;;
18772;SDS011;9515;50.810;4.418;2022-09-09T07:33:28;10.23;;;2.27;;
18772;SDS011;9515;50.810;4.418;2022-09-09T07:36:05;9.38;;;2.15;;
18772;SDS011;9515;50.810;4.418;2022-09-09T07:38:41;14.70;;;2.87;;
18772;SDS011;9515;50.810;4.418;2022-09-09T07:41:12;17.57;;;2.60;;
18772;SDS011;9515;50.810;4.418;2022-09-09T07:43:40;12.73;;;8.93;;
18772;SDS011;9515;50.810;4.418;2022-09-09T07:46:08;1.93;;;0.90;;
18772;SDS011;9515;50.810;4.418;2022-09-09T07:48:34;14.10;;;2.80;;
18772;SDS011;9515;50.810;4.418;2022-09-09T07:51:08;0.20;;;0.20;;
18772;SDS011;9515;50.810;4.418;2022-09-09T07:53:37;0.40;;;0.40;;
18772;SDS011;9515;50.810;4.418;2022-09-09T07:56:04;0.10;;;0.10;;
18772;SDS011;9515;50.810;4.418;2022-09-09T07:58:32;0.10;;;0.10;;
18772;SDS011;9515;50.810;4.418;2022-09-09T08:00:57;0.00;;;0.00;;
18772;SDS011;9515;50.810;4.418;2022-09-09T08:03:23;5.73;;;2.43;;
18772;SDS011;9515;50.810;4.418;2022-09-09T08:05:49;5.07;;;2.30;;
18772;SDS011;9515;50.810;4.418;2022-09-09T08:08:14;8.40;;;2.83;;
18772;SDS011;9515;50.810;4.418;2022-09-09T08:10:41;6.30;;;2.27;;
18772;SDS011;9515;50.810;4.418;2022-09-09T08:13:08;7.83;;;1.93;;
18772;SDS011;9515;50.810;4.418;2022-09-09T08:15:34;10.53;;;2.40;;
18772;SDS011;9515;50.810;4.418;2022-09-09T08:17:59;8.57;;;2.10;;
18772;SDS011;9515;50.810;4.418;2022-09-09T08:20:25;8.10;;;2.05;;
18772;SDS011;9515;50.810;4.418;2022-09-09T08:22:51;6.57;;;2.55;;
18772;SDS011;9515;50.810;4.418;2022-09-09T08:25:16;10.02;;;2.20;;
18772;SDS011;9515;50.810;4.418;2022-09-09T08:27:42;9.77;;;2.33;;
18772;SDS011;9515;50.810;4.418;2022-09-09T08:30:08;8.05;;;2.30;;
18772;SDS011;9515;50.810;4.418;2022-09-09T08:32:34;7.63;;;2.05;;
18772;SDS011;9515;50.810;4.418;2022-09-09T08:35:00;10.20;;;2.60;;
18772;SDS011;9515;50.810;4.418;2022-09-09T08:37:26;8.48;;;2.85;;
18772;SDS011;9515;50.810;4.418;2022-09-09T08:39:51;9.20;;;2.53;;
18772;SDS011;9515;50.810;4.418;2022-09-09T08:55:38;7.93;;;2.23;;
18772;SDS011;9515;50.810;4.418;2022-09-09T08:58:17;9.30;;;2.30;;
18772;SDS011;9515;50.810;4.418;2022-09-09T09:01:03;12.30;;;3.10;;
18772;SDS011;9515;50.810;4.418;2022-09-09T09:11:38;8.57;;;2.67;;
18772;SDS011;9515;50.810;4.418;2022-09-09T09:14:26;10.73;;;2.60;;
18772;SDS011;9515;50.810;4.418;2022-09-09T09:17:02;7.13;;;2.33;;
18772;SDS011;9515;50.810;4.418;2022-09-09T09:19:32;13.90;;;3.20;;
18772;SDS011;9515;50.810;4.418;2022-09-09T09:24:54;10.37;;;3.07;;
18772;SDS011;9515;50.810;4.418;2022-09-09T09:27:33;13.57;;;2.40;;
18772;SDS011;9515;50.810;4.418;2022-09-09T09:29:59;6.07;;;2.57;;
18772;SDS011;9515;50.810;4.418;2022-09-09T09:32:31;11.13;;;6.67;;
18772;SDS011;9515;50.810;4.418;2022-09-09T09:34:59;7.17;;;3.07;;
18772;SDS011;9515;50.810;4.418;2022-09-09T09:37:30;10.20;;;3.60;;
18772;SDS011;9515;50.810;4.418;2022-09-09T09:40:16;10.83;;;2.87;;
18772;SDS011;9515;50.810;4.418;2022-09-09T09:43:01;9.60;;;3.67;;
18772;SDS011;9515;50.810;4.418;2022-09-09T09:45:42;12.23;;;3.43;;
18772;SDS011;9515;50.810;4.418;2022-09-09T09:48:12;9.00;;;2.57;;
18772;SDS011;9515;50.810;4.418;2022-09-09T09:53:21;10.60;;;3.37;;
18772;SDS011;9515;50.810;4.418;2022-09-09T09:56:08;1.50;;;1.17;;
18772;SDS011;9515;50.810;4.418;2022-09-09T10:01:03;9.97;;;2.80;;
18772;SDS011;9515;50.810;4.418;2022-09-09T10:03:30;11.43;;;3.10;;
18772;SDS011;9515;50.810;4.418;2022-09-09T10:05:57;11.03;;;3.77;;
18772;SDS011;9515;50.810;4.418;2022-09-09T10:08:24;14.53;;;3.03;;
18772;SDS011;9515;50.810;4.418;2022-09-09T10:16:13;7.03;;;3.10;;
18772;SDS011;9515;50.810;4.418;2022-09-09T10:29:57;9.80;;;3.23;;
18772;SDS011;9515;50.810;4.418;2022-09-09T10:33:01;8.87;;;2.90;;
18772;SDS011;9515;50.810;4.418;2022-09-09T10:38:30;8.67;;;2.40;;
18772;SDS011;9515;50.810;4.418;2022-09-09T10:49:20;13.05;;;2.60;;
18772;SDS011;9515;50.810;4.418;2022-09-09T10:56:59;10.27;;;2.40;;
18772;SDS011;9515;50.810;4.418;2022-09-09T10:59:31;8.35;;;2.53;;
18772;SDS011;9515;50.810;4.418;2022-09-09T11:02:26;10.30;;;3.05;;
18772;SDS011;9515;50.810;4.418;2022-09-09T11:04:55;11.93;;;2.42;;
18772;SDS011;9515;50.810;4.418;2022-09-09T11:07:42;6.07;;;2.17;;
18772;SDS011;9515;50.810;4.418;2022-09-09T11:13:09;8.70;;;2.35;;
18772;SDS011;9515;50.810;4.418;2022-09-09T11:15:45;5.43;;;2.08;;
18772;SDS011;9515;50.810;4.418;2022-09-09T11:18:19;10.32;;;1.95;;
18772;SDS011;9515;50.810;4.418;2022-09-09T11:20:53;9.73;;;2.00;;
18772;SDS011;9515;50.810;4.418;2022-09-09T11:23:28;6.07;;;1.80;;
18772;SDS011;9515;50.810;4.418;2022-09-09T11:26:10;7.07;;;2.13;;
18772;SDS011;9515;50.810;4.418;2022-09-09T11:28:59;7.47;;;2.05;;
18772;SDS011;9515;50.810;4.418;2022-09-09T11:31:44;9.32;;;2.20;;
18772;SDS011;9515;50.810;4.418;2022-09-09T11:44:39;5.60;;;2.22;;
18772;SDS011;9515;50.810;4.418;2022-09-09T11:49:55;9.02;;;2.00;;
18772;SDS011;9515;50.810;4.418;2022-09-09T11:52:44;5.13;;;1.73;;
18772;SDS011;9515;50.810;4.418;2022-09-09T11:55:31;6.07;;;1.80;;
18772;SDS011;9515;50.810;4.418;2022-09-09T11:58:32;8.65;;;2.38;;
18772;SDS011;9515;50.810;4.418;2022-09-09T12:00:50;7.10;;;1.88;;
18772;SDS011;9515;50.810;4.418;2022-09-09T12:08:42;5.85;;;1.80;;
18772;SDS011;9515;50.810;4.418;2022-09-09T12:11:11;6.65;;;1.88;;
18772;SDS011;9515;50.810;4.418;2022-09-09T12:13:55;7.35;;;2.50;;
18772;SDS011;9515;50.810;4.418;2022-09-09T12:19:06;7.03;;;2.05;;
18772;SDS011;9515;50.810;4.418;2022-09-09T12:24:10;5.20;;;1.80;;
18772;SDS011;9515;50.810;4.418;2022-09-09T12:26:43;6.90;;;1.75;;
18772;SDS011;9515;50.810;4.418;2022-09-09T12:37:05;5.47;;;2.00;;
18772;SDS011;9515;50.810;4.418;2022-09-09T12:39:59;4.70;;;1.85;;
18772;SDS011;9515;50.810;4.418;2022-09-09T12:42:28;6.75;;;2.33;;
18772;SDS011;9515;50.810;4.418;2022-09-09T12:44:58;4.43;;;1.40;;
18772;SDS011;9515;50.810;4.418;2022-09-09T12:50:14;6.40;;;1.67;;
18772;SDS011;9515;50.810;4.418;2022-09-09T12:52:51;3.92;;;1.23;;
18772;SDS011;9515;50.810;4.418;2022-09-09T12:55:24;7.35;;;2.05;;
18772;SDS011;9515;50.810;4.418;2022-09-09T12:57:55;7.82;;;1.85;;
18772;SDS011;9515;50.810;4.418;2022-09-09T13:00:23;4.25;;;1.30;;
18772;SDS011;9515;50.810;4.418;2022-09-09T13:05:16;4.63;;;1.48;;
18772;SDS011;9515;50.810;4.418;2022-09-09T13:07:47;3.63;;;1.20;;
18772;SDS011;9515;50.810;4.418;2022-09-09T13:10:15;5.45;;;1.70;;
18772;SDS011;9515;50.810;4.418;2022-09-09T13:12:49;7.97;;;1.85;;
18772;SDS011;9515;50.810;4.418;2022-09-09T13:15:22;6.57;;;1.60;;
18772;SDS011;9515;50.810;4.418;2022-09-09T13:17:50;3.40;;;1.40;;
18772;SDS011;9515;50.810;4.418;2022-09-09T13:20:18;3.50;;;1.27;;
18772;SDS011;9515;50.810;4.418;2022-09-09T13:22:46;5.07;;;1.50;;
18772;SDS011;9515;50.810;4.418;2022-09-09T13:27:55;2.83;;;1.45;;
18772;SDS011;9515;50.810;4.418;2022-09-09T13:35:29;4.72;;;1.50;;
18772;SDS011;9515;50.810;4.418;2022-09-09T13:37:55;5.43;;;1.38;;
18772;SDS011;9515;50.810;4.418;2022-09-09T13:40:23;3.08;;;1.30;;
18772;SDS011;9515;50.810;4.418;2022-09-09T13:42:54;2.78;;;1.15;;
18772;SDS011;9515;50.810;4.418;2022-09-09T13:45:22;2.08;;;1.20;;
18772;SDS011;9515;50.810;4.418;2022-09-09T13:47:51;3.67;;;1.20;;
18772;SDS011;9515;50.810;4.418;2022-09-09T13:50:29;3.47;;;1.38;;
18772;SDS011;9515;50.810;4.418;2022-09-09T13:52:58;3.53;;;1.20;;
18772;SDS011;9515;50.810;4.418;2022-09-09T13:55:27;6.20;;;1.52;;
18772;SDS011;9515;50.810;4.418;2022-09-09T13:57:55;3.47;;;1.20;;
18772;SDS011;9515;50.810;4.418;2022-09-09T14:00:26;3.15;;;1.38;;
18772;SDS011;9515;50.810;4.418;2022-09-09T14:02:57;3.00;;;1.52;;
18772;SDS011;9515;50.810;4.418;2022-09-09T14:05:25;5.57;;;1.40;;
18772;SDS011;9515;50.810;4.418;2022-09-09T14:07:51;2.60;;;1.05;;
18772;SDS011;9515;50.810;4.418;2022-09-09T14:10:16;4.13;;;1.45;;
18772;SDS011;9515;50.810;4.418;2022-09-09T14:12:42;4.95;;;1.63;;
18772;SDS011;9515;50.810;4.418;2022-09-09T14:15:09;2.28;;;1.25;;
18772;SDS011;9515;50.810;4.418;2022-09-09T14:17:35;5.28;;;1.40;;
18772;SDS011;9515;50.810;4.418;2022-09-09T14:20:02;3.70;;;1.50;;
18772;SDS011;9515;50.810;4.418;2022-09-09T14:22:32;4.88;;;1.60;;
18772;SDS011;9515;50.810;4.418;2022-09-09T14:24:58;2.55;;;1.60;;
18772;SDS011;9515;50.810;4.418;2022-09-09T14:27:24;3.97;;;1.40;;
18772;SDS011;9515;50.810;4.418;2022-09-09T14:29:51;5.60;;;1.40;;
18772;SDS011;9515;50.810;4.418;2022-09-09T14:32:17;4.47;;;1.55;;
18772;SDS011;9515;50.810;4.418;2022-09-09T14:34:43;4.28;;;1.45;;
18772;SDS011;9515;50.810;4.418;2022-09-09T14:37:09;4.22;;;1.40;;
18772;SDS011;9515;50.810;4.418;2022-09-09T14:39:34;3.67;;;1.50;;
18772;SDS011;9515;50.810;4.418;2022-09-09T14:42:00;2.67;;;1.33;;
18772;SDS011;9515;50.810;4.418;2022-09-09T14:44:27;5.32;;;1.83;;
18772;SDS011;9515;50.810;4.418;2022-09-09T14:46:53;5.80;;;1.83;;
18772;SDS011;9515;50.810;4.418;2022-09-09T14:49:19;3.22;;;1.33;;
18772;SDS011;9515;50.810;4.418;2022-09-09T14:51:45;3.70;;;1.48;;
18772;SDS011;9515;50.810;4.418;2022-09-09T14:54:10;4.75;;;1.50;;
18772;SDS011;9515;50.810;4.418;2022-09-09T14:56:36;7.40;;;1.70;;
18772;SDS011;9515;50.810;4.418;2022-09-09T14:59:03;4.80;;;1.67;;
18772;SDS011;9515;50.810;4.418;2022-09-09T15:01:30;4.20;;;1.50;;
18772;SDS011;9515;50.810;4.418;2022-09-09T15:04:00;4.05;;;1.23;;
18772;SDS011;9515;50.810;4.418;2022-09-09T15:06:30;2.97;;;1.50;;
18772;SDS011;9515;50.810;4.418;2022-09-09T15:08:58;5.32;;;1.50;;
18772;SDS011;9515;50.810;4.418;2022-09-09T15:11:28;6.03;;;1.30;;
18772;SDS011;9515;50.810;4.418;2022-09-09T15:13:56;3.97;;;1.52;;
18772;SDS011;9515;50.810;4.418;2022-09-09T15:16:23;4.82;;;1.10;;
18772;SDS011;9515;50.810;4.418;2022-09-09T15:18:51;3.58;;;1.40;;
18772;SDS011;9515;50.810;4.418;2022-09-09T15:21:20;2.55;;;1.10;;
18772;SDS011;9515;50.810;4.418;2022-09-09T15:23:47;5.32;;;1.70;;
18772;SDS011;9515;50.810;4.418;2022-09-09T15:26:14;5.53;;;1.77;;
18772;SDS011;9515;50.810;4.418;2022-09-09T15:28:41;4.40;;;1.33;;
18772;SDS011;9515;50.810;4.418;2022-09-09T15:31:12;7.00;;;1.48;;
18772;SDS011;9515;50.810;4.418;2022-09-09T15:33:51;5.47;;;1.60;;
18772;SDS011;9515;50.810;4.418;2022-09-09T15:36:22;4.43;;;1.48;;
18772;SDS011;9515;50.810;4.418;2022-09-09T15:38:49;4.05;;;1.60;;
18772;SDS011;9515;50.810;4.418;2022-09-09T15:41:16;4.97;;;1.70;;
18772;SDS011;9515;50.810;4.418;2022-09-09T15:43:44;4.15;;;1.58;;
18772;SDS011;9515;50.810;4.418;2022-09-09T15:49:10;4.00;;;1.40;;
18772;SDS011;9515;50.810;4.418;2022-09-09T15:51:44;5.55;;;1.70;;
18772;SDS011;9515;50.810;4.418;2022-09-09T15:54:15;5.47;;;1.50;;
18772;SDS011;9515;50.810;4.418;2022-09-09T15:56:47;4.45;;;1.90;;
18772;SDS011;9515;50.810;4.418;2022-09-09T15:59:16;5.80;;;1.40;;
18772;SDS011;9515;50.810;4.418;2022-09-09T16:01:42;3.35;;;1.45;;
18772;SDS011;9515;50.810;4.418;2022-09-09T16:04:11;2.28;;;1.30;;
18772;SDS011;9515;50.810;4.418;2022-09-09T16:06:48;2.13;;;1.30;;
18772;SDS011;9515;50.810;4.418;2022-09-09T16:09:34;3.75;;;1.67;;
18772;SDS011;9515;50.810;4.418;2022-09-09T16:12:00;3.55;;;1.70;;
18772;SDS011;9515;50.810;4.418;2022-09-09T16:14:31;4.57;;;1.73;;
18772;SDS011;9515;50.810;4.418;2022-09-09T16:17:00;3.63;;;1.63;;
18772;SDS011;9515;50.810;4.418;2022-09-09T16:19:32;4.93;;;1.80;;
18772;SDS011;9515;50.810;4.418;2022-09-09T16:21:59;3.00;;;1.50;;
18772;SDS011;9515;50.810;4.418;2022-09-09T16:24:25;6.85;;;1.90;;
18772;SDS011;9515;50.810;4.418;2022-09-09T16:26:52;6.65;;;1.98;;
18772;SDS011;9515;50.810;4.418;2022-09-09T16:29:19;7.45;;;2.10;;
18772;SDS011;9515;50.810;4.418;2022-09-09T16:31:47;9.77;;;2.40;;
18772;SDS011;9515;50.810;4.418;2022-09-09T16:34:14;5.78;;;1.65;;
18772;SDS011;9515;50.810;4.418;2022-09-09T16:36:41;8.63;;;2.28;;
18772;SDS011;9515;50.810;4.418;2022-09-09T16:39:11;0.00;;;0.00;;
18772;SDS011;9515;50.810;4.418;2022-09-09T16:41:39;2.75;;;1.27;;
18772;SDS011;9515;50.810;4.418;2022-09-09T16:44:07;1.55;;;1.42;;
18772;SDS011;9515;50.810;4.418;2022-09-09T16:46:35;3.25;;;1.55;;
18772;SDS011;9515;50.810;4.418;2022-09-09T16:49:09;5.82;;;2.05;;
18772;SDS011;9515;50.810;4.418;2022-09-09T16:51:40;0.00;;;0.00;;
18772;SDS011;9515;50.810;4.418;2022-09-09T16:54:09;2.05;;;1.08;;
18772;SDS011;9515;50.810;4.418;2022-09-09T16:56:37;3.65;;;1.30;;
18772;SDS011;9515;50.810;4.418;2022-09-09T16:59:07;4.85;;;1.33;;
18772;SDS011;9515;50.810;4.418;2022-09-09T17:01:38;2.13;;;1.00;;
18772;SDS011;9515;50.810;4.418;2022-09-09T17:04:12;3.03;;;1.40;;
18772;SDS011;9515;50.810;4.418;2022-09-09T17:06:41;4.65;;;1.80;;
18772;SDS011;9515;50.810;4.418;2022-09-09T17:09:10;4.72;;;2.00;;
18772;SDS011;9515;50.810;4.418;2022-09-09T17:11:38;5.70;;;1.70;;
18772;SDS011;9515;50.810;4.418;2022-09-09T17:14:05;2.75;;;1.80;;
18772;SDS011;9515;50.810;4.418;2022-09-09T17:16:33;5.15;;;2.15;;
18772;SDS011;9515;50.810;4.418;2022-09-09T17:19:00;6.53;;;2.78;;
18772;SDS011;9515;50.810;4.418;2022-09-09T17:21:27;7.32;;;2.40;;
18772;SDS011;9515;50.810;4.418;2022-09-09T17:23:54;6.55;;;2.30;;
18772;SDS011;9515;50.810;4.418;2022-09-09T17:26:23;7.15;;;2.05;;
18772;SDS011;9515;50.810;4.418;2022-09-09T17:28:54;8.98;;;2.25;;
18772;SDS011;9515;50.810;4.418;2022-09-09T17:31:24;4.88;;;1.98;;
18772;SDS011;9515;50.810;4.418;2022-09-09T17:33:51;8.07;;;2.17;;
18772;SDS011;9515;50.810;4.418;2022-09-09T17:36:21;7.40;;;1.92;;
18772;SDS011;9515;50.810;4.418;2022-09-09T17:38:52;6.70;;;1.87;;
18772;SDS011;9515;50.810;4.418;2022-09-09T17:41:20;9.10;;;2.20;;
18772;SDS011;9515;50.810;4.418;2022-09-09T17:43:48;7.68;;;2.28;;
18772;SDS011;9515;50.810;4.418;2022-09-09T17:48:44;10.98;;;2.05;;
18772;SDS011;9515;50.810;4.418;2022-09-09T17:51:14;7.90;;;2.37;;
18772;SDS011;9515;50.810;4.418;2022-09-09T17:53:43;9.55;;;2.63;;
18772;SDS011;9515;50.810;4.418;2022-09-09T17:56:11;7.97;;;2.33;;
18772;SDS011;9515;50.810;4.418;2022-09-09T17:58:39;9.55;;;1.77;;